sensor_id;sensor_type;location;lat;lon;timestamp;pressure;altitude;pressure_sealevel;temperature;humidity
10510;BME280;5303;53.266;10.410;2023-06-10T00:01:41;101577.81;;;14.60;71.17
10510;BME280;5303;53.266;10.410;2023-06-10T00:04:08;101586.75;;;14.47;71.63
10510;BME280;5303;53.266;10.410;2023-06-10T00:06:34;101591.19;;;14.44;71.79
10510;BME280;5303;53.266;10.410;2023-06-10T00:09:06;101587.66;;;14.45;71.63
10510;BME280;5303;53.266;10.410;2023-06-10T00:11:39;101593.91;;;14.28;72.29
10510;BME280;5303;53.266;10.410;2023-06-10T00:14:05;101587.81;;;14.20;72.85
10510;BME280;5303;53.266;10.410;2023-06-10T00:16:30;101586.03;;;14.16;72.99
10510;BME280;5303;53.266;10.410;2023-06-10T00:18:55;101589.53;;;14.24;72.30
10510;BME280;5303;53.266;10.410;2023-06-10T00:21:25;101588.75;;;14.10;73.11
10510;BME280;5303;53.266;10.410;2023-06-10T00:23:51;101593.16;;;14.05;73.59
10510;BME280;5303;53.266;10.410;2023-06-10T00:26:16;101589.59;;;14.09;73.16
10510;BME280;5303;53.266;10.410;2023-06-10T00:28:42;101589.66;;;14.03;73.46
10510;BME280;5303;53.266;10.410;2023-06-10T00:31:07;101594.06;;;13.99;73.79
10510;BME280;5303;53.266;10.410;2023-06-10T00:33:32;101586.09;;;14.04;73.53
10510;BME280;5303;53.266;10.410;2023-06-10T00:35:57;101600.19;;;14.15;73.51
10510;BME280;5303;53.266;10.410;2023-06-10T00:38:22;101593.16;;;14.11;73.33
10510;BME280;5303;53.266;10.410;2023-06-10T00:40:48;101600.22;;;14.06;73.78
10510;BME280;5303;53.266;10.410;2023-06-10T00:43:13;101594.06;;;14.05;73.82
10510;BME280;5303;53.266;10.410;2023-06-10T00:45:39;101589.66;;;14.01;73.94
10510;BME280;5303;53.266;10.410;2023-06-10T00:48:04;101599.38;;;14.01;74.21
10510;BME280;5303;53.266;10.410;2023-06-10T00:50:30;101601.13;;;14.05;74.21
10510;BME280;5303;53.266;10.410;2023-06-10T00:52:56;101595.75;;;14.19;73.63
10510;BME280;5303;53.266;10.410;2023-06-10T00:55:22;101594.91;;;14.09;74.08
10510;BME280;5303;53.266;10.410;2023-06-10T00:57:48;101594.94;;;14.06;74.20
10510;BME280;5303;53.266;10.410;2023-06-10T01:00:15;101595.78;;;14.08;73.97
10510;BME280;5303;53.266;10.410;2023-06-10T01:02:41;101594.94;;;14.06;74.42
10510;BME280;5303;53.266;10.410;2023-06-10T01:05:07;101595.72;;;14.23;74.44
10510;BME280;5303;53.266;10.410;2023-06-10T01:07:38;101594.81;;;14.27;73.06
10510;BME280;5303;53.266;10.410;2023-06-10T01:10:16;101595.75;;;14.16;73.44
10510;BME280;5303;53.266;10.410;2023-06-10T01:13:01;101599.31;;;14.15;73.75
10510;BME280;5303;53.266;10.410;2023-06-10T01:15:32;101594.00;;;14.16;73.93
10510;BME280;5303;53.266;10.410;2023-06-10T01:18:03;101594.84;;;14.24;73.23
10510;BME280;5303;53.266;10.410;2023-06-10T01:20:29;101589.53;;;14.24;73.21
10510;BME280;5303;53.266;10.410;2023-06-10T01:22:57;101597.53;;;14.21;73.06
10510;BME280;5303;53.266;10.410;2023-06-10T01:25:24;101589.56;;;14.15;73.28
10510;BME280;5303;53.266;10.410;2023-06-10T01:30:42;101593.16;;;14.11;73.92
10510;BME280;5303;53.266;10.410;2023-06-10T01:33:10;101591.41;;;14.05;73.91
10510;BME280;5303;53.266;10.410;2023-06-10T01:35:38;101594.06;;;13.98;73.75
10510;BME280;5303;53.266;10.410;2023-06-10T01:38:04;101596.75;;;13.89;74.10
10510;BME280;5303;53.266;10.410;2023-06-10T01:40:32;101587.00;;;13.97;74.12
10510;BME280;5303;53.266;10.410;2023-06-10T01:42:57;101593.22;;;13.96;74.23
10510;BME280;5303;53.266;10.410;2023-06-10T01:45:23;101587.09;;;13.81;74.38
10510;BME280;5303;53.266;10.410;2023-06-10T01:47:48;101598.59;;;13.74;74.56
10510;BME280;5303;53.266;10.410;2023-06-10T01:50:13;101590.69;;;13.70;74.46
10510;BME280;5303;53.266;10.410;2023-06-10T01:52:38;101603.03;;;13.71;74.83
10510;BME280;5303;53.266;10.410;2023-06-10T01:55:04;101596.84;;;13.79;74.68
10510;BME280;5303;53.266;10.410;2023-06-10T01:57:29;101594.19;;;13.72;74.48
10510;BME280;5303;53.266;10.410;2023-06-10T01:59:55;101594.19;;;13.75;74.39
10510;BME280;5303;53.266;10.410;2023-06-10T02:02:20;101595.94;;;13.82;74.20
10510;BME280;5303;53.266;10.410;2023-06-10T02:04:47;101591.50;;;13.82;73.92
10510;BME280;5303;53.266;10.410;2023-06-10T02:07:12;101587.09;;;13.77;74.62
10510;BME280;5303;53.266;10.410;2023-06-10T02:09:37;101587.97;;;13.77;74.37
10510;BME280;5303;53.266;10.410;2023-06-10T02:12:03;101591.56;;;13.66;74.99
10510;BME280;5303;53.266;10.410;2023-06-10T02:14:29;101590.69;;;13.64;74.95
10510;BME280;5303;53.266;10.410;2023-06-10T02:16:54;101594.19;;;13.69;75.18
10510;BME280;5303;53.266;10.410;2023-06-10T02:19:22;101599.53;;;13.63;75.32
10510;BME280;5303;53.266;10.410;2023-06-10T02:21:47;101606.56;;;13.68;74.85
10510;BME280;5303;53.266;10.410;2023-06-10T02:24:13;101602.16;;;13.67;75.11
10510;BME280;5303;53.266;10.410;2023-06-10T02:26:38;101603.94;;;13.65;75.01
10510;BME280;5303;53.266;10.410;2023-06-10T02:29:03;101611.91;;;13.61;74.95
10510;BME280;5303;53.266;10.410;2023-06-10T02:31:29;101617.22;;;13.53;75.08
10510;BME280;5303;53.266;10.410;2023-06-10T02:33:54;101616.34;;;13.45;75.21
10510;BME280;5303;53.266;10.410;2023-06-10T02:36:20;101616.34;;;13.54;75.27
10510;BME280;5303;53.266;10.410;2023-06-10T02:38:46;101614.59;;;13.45;75.12
10510;BME280;5303;53.266;10.410;2023-06-10T02:41:12;101611.06;;;13.43;75.47
10510;BME280;5303;53.266;10.410;2023-06-10T02:43:37;101613.69;;;13.52;74.61
10510;BME280;5303;53.266;10.410;2023-06-10T02:46:02;101619.88;;;13.47;74.55
10510;BME280;5303;53.266;10.410;2023-06-10T02:48:27;101617.22;;;13.51;74.53
10510;BME280;5303;53.266;10.410;2023-06-10T02:50:53;101626.06;;;13.53;73.82
10510;BME280;5303;53.266;10.410;2023-06-10T02:53:18;101618.13;;;13.38;74.21
10510;BME280;5303;53.266;10.410;2023-06-10T02:55:43;101620.78;;;13.37;74.41
10510;BME280;5303;53.266;10.410;2023-06-10T02:58:09;101621.66;;;13.36;74.74
10510;BME280;5303;53.266;10.410;2023-06-10T03:00:35;101618.13;;;13.27;75.33
10510;BME280;5303;53.266;10.410;2023-06-10T03:03:02;101606.66;;;13.36;74.44
10510;BME280;5303;53.266;10.410;2023-06-10T03:05:29;101617.25;;;13.36;74.22
10510;BME280;5303;53.266;10.410;2023-06-10T03:07:54;101619.94;;;13.29;74.71
10510;BME280;5303;53.266;10.410;2023-06-10T03:10:20;101614.63;;;13.33;74.66
10510;BME280;5303;53.266;10.410;2023-06-10T03:12:45;101612.84;;;13.23;74.76
10510;BME280;5303;53.266;10.410;2023-06-10T03:15:10;101619.94;;;13.29;74.71
10510;BME280;5303;53.266;10.410;2023-06-10T03:17:36;101623.44;;;13.18;74.76
10510;BME280;5303;53.266;10.410;2023-06-10T03:20:02;101622.53;;;13.18;75.08
10510;BME280;5303;53.266;10.410;2023-06-10T03:22:28;101625.22;;;13.22;74.55
10510;BME280;5303;53.266;10.410;2023-06-10T03:24:53;101623.47;;;13.21;74.43
10510;BME280;5303;53.266;10.410;2023-06-10T03:27:20;101631.41;;;13.24;74.85
10510;BME280;5303;53.266;10.410;2023-06-10T03:29:45;101626.09;;;13.26;74.57
10510;BME280;5303;53.266;10.410;2023-06-10T03:32:10;101622.56;;;13.30;74.69
10510;BME280;5303;53.266;10.410;2023-06-10T03:34:36;101627.88;;;13.32;74.00
10510;BME280;5303;53.266;10.410;2023-06-10T03:37:01;101624.34;;;13.33;74.00
10510;BME280;5303;53.266;10.410;2023-06-10T03:39:26;101620.81;;;13.32;73.66
10510;BME280;5303;53.266;10.410;2023-06-10T03:41:54;101621.66;;;13.42;73.61
10510;BME280;5303;53.266;10.410;2023-06-10T03:44:19;101626.97;;;13.42;73.48
10510;BME280;5303;53.266;10.410;2023-06-10T03:46:45;101625.19;;;13.35;73.30
10510;BME280;5303;53.266;10.410;2023-06-10T03:49:10;101626.09;;;13.43;73.36
10510;BME280;5303;53.266;10.410;2023-06-10T03:51:36;101617.25;;;13.36;73.00
10510;BME280;5303;53.266;10.410;2023-06-10T03:54:02;101613.72;;;13.33;73.36
10510;BME280;5303;53.266;10.410;2023-06-10T03:56:28;101611.97;;;13.22;73.48
10510;BME280;5303;53.266;10.410;2023-06-10T03:58:53;101615.50;;;13.31;73.54
10510;BME280;5303;53.266;10.410;2023-06-10T04:01:19;101622.56;;;13.30;73.54
10510;BME280;5303;53.266;10.410;2023-06-10T04:03:46;101621.69;;;13.26;73.90
10510;BME280;5303;53.266;10.410;2023-06-10T04:06:13;101621.66;;;13.36;73.14
10510;BME280;5303;53.266;10.410;2023-06-10T04:08:39;101621.66;;;13.36;72.86
10510;BME280;5303;53.266;10.410;2023-06-10T04:11:04;101623.44;;;13.37;73.32
10510;BME280;5303;53.266;10.410;2023-06-10T04:13:29;101625.22;;;13.24;73.66
10510;BME280;5303;53.266;10.410;2023-06-10T04:15:54;101626.13;;;13.20;74.03
10510;BME280;5303;53.266;10.410;2023-06-10T04:18:20;101630.50;;;13.25;74.41
10510;BME280;5303;53.266;10.410;2023-06-10T04:20:46;101625.22;;;13.29;74.00
10510;BME280;5303;53.266;10.410;2023-06-10T04:23:12;101622.53;;;13.45;73.18
10510;BME280;5303;53.266;10.410;2023-06-10T04:25:37;101631.34;;;13.47;72.80
10510;BME280;5303;53.266;10.410;2023-06-10T04:28:02;101632.25;;;13.46;72.93
10510;BME280;5303;53.266;10.410;2023-06-10T04:30:28;101628.69;;;13.55;72.72
10510;BME280;5303;53.266;10.410;2023-06-10T04:32:53;101639.28;;;13.58;72.58
10510;BME280;5303;53.266;10.410;2023-06-10T04:35:19;101634.03;;;13.52;73.13
10510;BME280;5303;53.266;10.410;2023-06-10T04:37:44;101632.25;;;13.60;72.53
10510;BME280;5303;53.266;10.410;2023-06-10T04:40:10;101626.91;;;13.66;72.62
10510;BME280;5303;53.266;10.410;2023-06-10T04:42:36;101636.63;;;13.73;72.05
10510;BME280;5303;53.266;10.410;2023-06-10T04:45:02;101629.53;;;13.80;71.89
10510;BME280;5303;53.266;10.410;2023-06-10T04:47:29;101630.41;;;13.83;71.88
10510;BME280;5303;53.266;10.410;2023-06-10T04:49:58;101634.81;;;13.77;71.99
10510;BME280;5303;53.266;10.410;2023-06-10T04:52:23;101633.03;;;13.87;71.37
10510;BME280;5303;53.266;10.410;2023-06-10T04:54:49;101633.03;;;13.88;71.57
10510;BME280;5303;53.266;10.410;2023-06-10T04:57:15;101641.00;;;13.91;71.23
10510;BME280;5303;53.266;10.410;2023-06-10T04:59:40;101642.75;;;13.89;71.89
10510;BME280;5303;53.266;10.410;2023-06-10T05:02:05;101635.69;;;13.93;72.11
10510;BME280;5303;53.266;10.410;2023-06-10T05:04:31;101631.22;;;13.98;71.47
10510;BME280;5303;53.266;10.410;2023-06-10T05:06:56;101628.53;;;14.07;71.01
10510;BME280;5303;53.266;10.410;2023-06-10T05:09:21;101641.81;;;13.98;71.41
10510;BME280;5303;53.266;10.410;2023-06-10T05:11:47;101640.94;;;14.03;71.55
10510;BME280;5303;53.266;10.410;2023-06-10T05:14:12;101639.09;;;14.16;71.13
10510;BME280;5303;53.266;10.410;2023-06-10T05:16:37;101634.63;;;14.27;70.75
10510;BME280;5303;53.266;10.410;2023-06-10T05:19:03;101638.16;;;14.29;71.21
10510;BME280;5303;53.266;10.410;2023-06-10T05:21:29;101634.56;;;14.38;70.25
10510;BME280;5303;53.266;10.410;2023-06-10T05:23:54;101635.44;;;14.43;70.45
10510;BME280;5303;53.266;10.410;2023-06-10T05:26:19;101649.56;;;14.50;70.89
10510;BME280;5303;53.266;10.410;2023-06-10T05:28:45;101647.78;;;14.55;69.97
10510;BME280;5303;53.266;10.410;2023-06-10T05:31:10;101637.09;;;14.64;69.61
10510;BME280;5303;53.266;10.410;2023-06-10T05:33:35;101644.06;;;14.80;70.03
10510;BME280;5303;53.266;10.410;2023-06-10T05:36:00;101637.69;;;15.04;68.50
10510;BME280;5303;53.266;10.410;2023-06-10T05:38:26;101637.78;;;14.93;68.41
10510;BME280;5303;53.266;10.410;2023-06-10T05:40:51;101637.72;;;14.99;68.64
10510;BME280;5303;53.266;10.410;2023-06-10T05:43:16;101631.56;;;14.94;68.91
10510;BME280;5303;53.266;10.410;2023-06-10T05:45:42;101636.03;;;14.89;68.66
10510;BME280;5303;53.266;10.410;2023-06-10T05:48:07;101634.91;;;15.18;68.97
10510;BME280;5303;53.266;10.410;2023-06-10T05:50:34;101616.97;;;15.41;67.88
10510;BME280;5303;53.266;10.410;2023-06-10T05:53:03;101615.91;;;15.61;66.89
10510;BME280;5303;53.266;10.410;2023-06-10T05:55:28;101621.22;;;15.59;67.17
10510;BME280;5303;53.266;10.410;2023-06-10T05:58:00;101613.28;;;15.54;66.83
10510;BME280;5303;53.266;10.410;2023-06-10T06:00:25;101617.78;;;15.48;66.78
10510;BME280;5303;53.266;10.410;2023-06-10T06:02:52;101615.38;;;15.25;67.98
10510;BME280;5303;53.266;10.410;2023-06-10T06:05:17;101610.94;;;15.21;67.56
10510;BME280;5303;53.266;10.410;2023-06-10T06:07:43;101615.38;;;15.25;68.57
10510;BME280;5303;53.266;10.410;2023-06-10T06:10:08;101610.94;;;15.25;68.18
10510;BME280;5303;53.266;10.410;2023-06-10T06:12:33;101603.06;;;15.15;68.67
10510;BME280;5303;53.266;10.410;2023-06-10T06:14:59;101609.13;;;15.27;68.40
10510;BME280;5303;53.266;10.410;2023-06-10T06:17:24;101612.53;;;15.42;67.88
10510;BME280;5303;53.266;10.410;2023-06-10T06:19:49;101606.53;;;15.20;68.14
10510;BME280;5303;53.266;10.410;2023-06-10T06:22:15;101597.56;;;15.30;68.63
10510;BME280;5303;53.266;10.410;2023-06-10T06:24:40;101601.09;;;15.32;67.56
10510;BME280;5303;53.266;10.410;2023-06-10T06:27:05;101600.22;;;15.30;68.35
10510;BME280;5303;53.266;10.410;2023-06-10T06:29:31;101597.44;;;15.45;67.76
10510;BME280;5303;53.266;10.410;2023-06-10T06:31:56;101600.91;;;15.50;67.68
10510;BME280;5303;53.266;10.410;2023-06-10T06:34:22;101599.09;;;15.55;67.63
10510;BME280;5303;53.266;10.410;2023-06-10T06:36:47;101602.78;;;15.41;67.63
10510;BME280;5303;53.266;10.410;2023-06-10T06:39:12;101608.88;;;15.50;68.56
10510;BME280;5303;53.266;10.410;2023-06-10T06:41:37;101611.53;;;15.50;68.20
10510;BME280;5303;53.266;10.410;2023-06-10T06:44:03;101604.38;;;15.59;67.77
10510;BME280;5303;53.266;10.410;2023-06-10T06:46:28;101603.50;;;15.56;68.37
10510;BME280;5303;53.266;10.410;2023-06-10T06:48:53;101615.63;;;15.85;67.74
10510;BME280;5303;53.266;10.410;2023-06-10T06:51:19;101617.44;;;15.84;67.16
10510;BME280;5303;53.266;10.410;2023-06-10T06:53:44;101629.88;;;15.79;67.63
10510;BME280;5303;53.266;10.410;2023-06-10T06:56:11;101622.75;;;15.81;67.57
10510;BME280;5303;53.266;10.410;2023-06-10T06:58:36;101621.88;;;15.81;67.88
10510;BME280;5303;53.266;10.410;2023-06-10T07:01:01;101618.28;;;15.83;68.05
10510;BME280;5303;53.266;10.410;2023-06-10T07:03:27;101625.28;;;15.95;67.78
10510;BME280;5303;53.266;10.410;2023-06-10T07:05:52;101619.97;;;15.92;67.59
10510;BME280;5303;53.266;10.410;2023-06-10T07:08:17;101616.31;;;16.01;67.83
10510;BME280;5303;53.266;10.410;2023-06-10T07:10:42;101626.88;;;16.08;67.45
10510;BME280;5303;53.266;10.410;2023-06-10T07:13:08;101621.44;;;16.18;67.84
10510;BME280;5303;53.266;10.410;2023-06-10T07:15:33;101623.06;;;16.28;66.20
10510;BME280;5303;53.266;10.410;2023-06-10T07:17:58;101626.63;;;16.27;67.11
10510;BME280;5303;53.266;10.410;2023-06-10T07:20:24;101629.09;;;16.40;67.21
10510;BME280;5303;53.266;10.410;2023-06-10T07:22:49;101629.00;;;16.48;66.28
10510;BME280;5303;53.266;10.410;2023-06-10T07:25:15;101637.00;;;16.48;66.52
10510;BME280;5303;53.266;10.410;2023-06-10T07:27:40;101634.41;;;16.42;67.23
10510;BME280;5303;53.266;10.410;2023-06-10T07:30:06;101627.97;;;16.58;66.54
10510;BME280;5303;53.266;10.410;2023-06-10T07:32:34;101636.81;;;16.60;66.76
10510;BME280;5303;53.266;10.410;2023-06-10T07:35:00;101640.28;;;16.68;66.17
10510;BME280;5303;53.266;10.410;2023-06-10T07:37:25;101631.31;;;16.73;66.86
10510;BME280;5303;53.266;10.410;2023-06-10T07:39:50;101628.69;;;16.71;67.42
10510;BME280;5303;53.266;10.410;2023-06-10T07:42:16;101631.72;;;17.04;65.31
10510;BME280;5303;53.266;10.410;2023-06-10T07:44:41;101639.78;;;16.99;65.67
10510;BME280;5303;53.266;10.410;2023-06-10T07:47:06;101636.06;;;17.09;65.70
10510;BME280;5303;53.266;10.410;2023-06-10T07:49:31;101634.41;;;17.02;65.69
10510;BME280;5303;53.266;10.410;2023-06-10T07:51:57;101627.97;;;17.14;65.32
10510;BME280;5303;53.266;10.410;2023-06-10T07:54:22;101627.06;;;17.15;65.69
10510;BME280;5303;53.266;10.410;2023-06-10T07:56:48;101631.97;;;17.41;64.59
10510;BME280;5303;53.266;10.410;2023-06-10T07:59:13;101626.69;;;17.38;64.70
10510;BME280;5303;53.266;10.410;2023-06-10T08:01:39;101624.69;;;17.49;64.69
10510;BME280;5303;53.266;10.410;2023-06-10T08:04:05;101627.91;;;17.68;64.36
10510;BME280;5303;53.266;10.410;2023-06-10T08:06:30;101615.31;;;17.76;64.36
10510;BME280;5303;53.266;10.410;2023-06-10T08:08:55;101616.84;;;17.88;63.21
10510;BME280;5303;53.266;10.410;2023-06-10T08:11:21;101616.84;;;17.89;63.04
10510;BME280;5303;53.266;10.410;2023-06-10T08:13:46;101618.50;;;17.93;63.26
10510;BME280;5303;53.266;10.410;2023-06-10T08:16:12;101627.72;;;17.78;63.35
10510;BME280;5303;53.266;10.410;2023-06-10T08:18:37;101635.78;;;17.75;63.65
10510;BME280;5303;53.266;10.410;2023-06-10T08:21:02;101626.16;;;17.65;63.96
10510;BME280;5303;53.266;10.410;2023-06-10T08:23:27;101620.66;;;17.74;64.22
10510;BME280;5303;53.266;10.410;2023-06-10T08:25:53;101623.97;;;17.87;64.50
10510;BME280;5303;53.266;10.410;2023-06-10T08:28:18;101614.84;;;17.99;64.61
10510;BME280;5303;53.266;10.410;2023-06-10T08:30:43;101616.16;;;18.21;62.61
10510;BME280;5303;53.266;10.410;2023-06-10T08:33:09;101630.91;;;18.37;61.34
10510;BME280;5303;53.266;10.410;2023-06-10T08:35:34;101628.31;;;18.34;62.26
10510;BME280;5303;53.266;10.410;2023-06-10T08:38:00;101618.63;;;18.29;63.19
10510;BME280;5303;53.266;10.410;2023-06-10T08:40:25;101624.03;;;18.26;62.94
10510;BME280;5303;53.266;10.410;2023-06-10T08:45:27;101617.84;;;18.64;61.95
10510;BME280;5303;53.266;10.410;2023-06-10T08:47:56;101612.31;;;18.73;61.40
10510;BME280;5303;53.266;10.410;2023-06-10T08:50:22;101609.72;;;18.68;61.83
10510;BME280;5303;53.266;10.410;2023-06-10T08:52:48;101612.84;;;18.87;62.11
10510;BME280;5303;53.266;10.410;2023-06-10T08:55:18;101610.31;;;19.17;60.22
10510;BME280;5303;53.266;10.410;2023-06-10T08:57:48;101605.41;;;19.34;59.56
10510;BME280;5303;53.266;10.410;2023-06-10T09:00:14;101606.66;;;19.21;60.21
10510;BME280;5303;53.266;10.410;2023-06-10T09:02:40;101618.28;;;19.18;59.81
10510;BME280;5303;53.266;10.410;2023-06-10T09:05:06;101612.72;;;19.27;59.84
10510;BME280;5303;53.266;10.410;2023-06-10T09:07:32;101615.28;;;19.32;60.33
10510;BME280;5303;53.266;10.410;2023-06-10T09:10:00;101610.69;;;19.70;58.51
10510;BME280;5303;53.266;10.410;2023-06-10T09:12:28;101610.63;;;19.73;58.86
10510;BME280;5303;53.266;10.410;2023-06-10T09:14:53;101611.50;;;19.73;59.27
10510;BME280;5303;53.266;10.410;2023-06-10T09:17:18;101616.44;;;19.54;59.06
10510;BME280;5303;53.266;10.410;2023-06-10T09:19:44;101606.34;;;19.66;58.93
10510;BME280;5303;53.266;10.410;2023-06-10T09:22:09;101614.13;;;19.75;59.42
10510;BME280;5303;53.266;10.410;2023-06-10T09:24:35;101609.19;;;19.91;59.54
10510;BME280;5303;53.266;10.410;2023-06-10T09:27:04;101606.25;;;20.00;58.89
10510;BME280;5303;53.266;10.410;2023-06-10T09:29:32;101608.66;;;20.09;58.45
10510;BME280;5303;53.266;10.410;2023-06-10T09:31:57;101618.56;;;20.36;57.91
10510;BME280;5303;53.266;10.410;2023-06-10T09:34:25;101608.59;;;20.40;57.75
10510;BME280;5303;53.266;10.410;2023-06-10T09:36:51;101603.09;;;20.46;57.43
10510;BME280;5303;53.266;10.410;2023-06-10T09:39:17;101604.22;;;20.37;58.22
10510;BME280;5303;53.266;10.410;2023-06-10T09:41:44;101605.91;;;20.69;57.57
10510;BME280;5303;53.266;10.410;2023-06-10T09:44:15;101596.53;;;20.56;57.52
10510;BME280;5303;53.266;10.410;2023-06-10T09:46:41;101601.94;;;20.81;56.42
10510;BME280;5303;53.266;10.410;2023-06-10T09:49:06;101597.75;;;20.73;57.35
10510;BME280;5303;53.266;10.410;2023-06-10T09:51:32;101601.81;;;20.86;56.51
10510;BME280;5303;53.266;10.410;2023-06-10T09:53:58;101593.13;;;21.04;55.48
10510;BME280;5303;53.266;10.410;2023-06-10T09:56:35;101597.47;;;21.08;56.01
10510;BME280;5303;53.266;10.410;2023-06-10T09:59:00;101596.66;;;21.06;55.83
10510;BME280;5303;53.266;10.410;2023-06-10T10:01:25;101592.22;;;21.05;56.67
10510;BME280;5303;53.266;10.410;2023-06-10T10:03:51;101595.09;;;21.25;56.06
10510;BME280;5303;53.266;10.410;2023-06-10T10:06:18;101591.53;;;21.26;55.49
10510;BME280;5303;53.266;10.410;2023-06-10T10:08:46;101591.38;;;21.54;55.67
10510;BME280;5303;53.266;10.410;2023-06-10T10:11:12;101589.63;;;21.53;55.75
10510;BME280;5303;53.266;10.410;2023-06-10T10:13:39;101598.25;;;21.63;54.38
10510;BME280;5303;53.266;10.410;2023-06-10T10:16:10;101595.41;;;21.68;54.99
10510;BME280;5303;53.266;10.410;2023-06-10T10:18:42;101588.31;;;21.65;56.00
10510;BME280;5303;53.266;10.410;2023-06-10T10:21:12;101595.81;;;21.80;55.17
10510;BME280;5303;53.266;10.410;2023-06-10T10:26:16;101592.66;;;21.93;54.47
10510;BME280;5303;53.266;10.410;2023-06-10T10:28:48;101600.19;;;22.08;54.55
10510;BME280;5303;53.266;10.410;2023-06-10T10:31:18;101591.63;;;21.97;54.55
10510;BME280;5303;53.266;10.410;2023-06-10T10:33:59;101590.72;;;22.43;53.99
10510;BME280;5303;53.266;10.410;2023-06-10T10:36:25;101587.69;;;22.52;53.15
10510;BME280;5303;53.266;10.410;2023-06-10T10:38:51;101589.66;;;22.47;53.21
10510;BME280;5303;53.266;10.410;2023-06-10T10:41:18;101588.69;;;22.50;53.77
10510;BME280;5303;53.266;10.410;2023-06-10T10:43:44;101582.88;;;22.60;53.65
10510;BME280;5303;53.266;10.410;2023-06-10T10:46:14;101575.47;;;22.65;53.29
10510;BME280;5303;53.266;10.410;2023-06-10T10:48:41;101589.81;;;22.88;52.41
10510;BME280;5303;53.266;10.410;2023-06-10T10:51:07;101576.03;;;22.74;52.42
10510;BME280;5303;53.266;10.410;2023-06-10T10:53:33;101578.41;;;22.81;52.52
10510;BME280;5303;53.266;10.410;2023-06-10T10:56:15;101576.31;;;22.89;52.51
10510;BME280;5303;53.266;10.410;2023-06-10T10:58:42;101573.91;;;23.04;52.52
10510;BME280;5303;53.266;10.410;2023-06-10T11:01:39;101577.94;;;22.93;52.51
10510;BME280;5303;53.266;10.410;2023-06-10T11:04:07;101571.47;;;23.18;51.99
10510;BME280;5303;53.266;10.410;2023-06-10T11:06:32;101581.03;;;23.25;51.38
10510;BME280;5303;53.266;10.410;2023-06-10T11:08:57;101582.00;;;23.24;51.31
10510;BME280;5303;53.266;10.410;2023-06-10T11:11:26;101576.34;;;23.30;51.58
10510;BME280;5303;53.266;10.410;2023-06-10T11:16:28;101571.63;;;23.55;51.14
10510;BME280;5303;53.266;10.410;2023-06-10T11:18:54;101574.19;;;23.59;51.22
10510;BME280;5303;53.266;10.410;2023-06-10T11:21:20;101564.75;;;23.48;52.18
10510;BME280;5303;53.266;10.410;2023-06-10T11:23:46;101564.97;;;23.64;50.88
10510;BME280;5303;53.266;10.410;2023-06-10T11:34:03;101557.28;;;23.55;50.63
10510;BME280;5303;53.266;10.410;2023-06-10T11:36:30;101553.50;;;23.98;48.64
10510;BME280;5303;53.266;10.410;2023-06-10T11:41:27;101541.75;;;23.80;48.81
10510;BME280;5303;53.266;10.410;2023-06-10T11:43:59;101547.06;;;24.01;49.44
10510;BME280;5303;53.266;10.410;2023-06-10T11:46:26;101545.06;;;24.06;48.25
10510;BME280;5303;53.266;10.410;2023-06-10T11:48:59;101557.41;;;24.29;47.41
10510;BME280;5303;53.266;10.410;2023-06-10T11:51:26;101546.94;;;24.23;47.29
10510;BME280;5303;53.266;10.410;2023-06-10T11:53:53;101545.06;;;24.25;46.92
10510;BME280;5303;53.266;10.410;2023-06-10T11:56:25;101552.97;;;24.28;47.77
10510;BME280;5303;53.266;10.410;2023-06-10T11:59:08;101547.75;;;24.44;47.98
10510;BME280;5303;53.266;10.410;2023-06-10T12:01:41;101549.16;;;24.33;47.71
10510;BME280;5303;53.266;10.410;2023-06-10T12:06:47;101546.59;;;24.66;46.74
10510;BME280;5303;53.266;10.410;2023-06-10T12:09:14;101544.38;;;24.57;45.12
10510;BME280;5303;53.266;10.410;2023-06-10T12:11:39;101540.09;;;24.53;45.87
10510;BME280;5303;53.266;10.410;2023-06-10T12:14:05;101537.69;;;24.47;47.48
10510;BME280;5303;53.266;10.410;2023-06-10T12:16:31;101543.78;;;24.87;45.30
10510;BME280;5303;53.266;10.410;2023-06-10T12:19:02;101543.31;;;24.96;45.61
10510;BME280;5303;53.266;10.410;2023-06-10T12:21:28;101534.41;;;24.94;44.54
10510;BME280;5303;53.266;10.410;2023-06-10T12:24:10;101529.03;;;24.94;44.04
10510;BME280;5303;53.266;10.410;2023-06-10T12:32:02;101528.44;;;25.39;43.68
10510;BME280;5303;53.266;10.410;2023-06-10T12:34:33;101531.09;;;25.23;44.37
10510;BME280;5303;53.266;10.410;2023-06-10T12:36:59;101537.31;;;25.59;44.05
10510;BME280;5303;53.266;10.410;2023-06-10T12:39:25;101524.41;;;25.64;42.25
10510;BME280;5303;53.266;10.410;2023-06-10T12:41:54;101526.31;;;25.46;42.61
10510;BME280;5303;53.266;10.410;2023-06-10T12:44:30;101511.47;;;25.53;43.26
10510;BME280;5303;53.266;10.410;2023-06-10T12:46:55;101509.59;;;25.55;43.54
10510;BME280;5303;53.266;10.410;2023-06-10T12:49:21;101510.47;;;25.55;43.75
10510;BME280;5303;53.266;10.410;2023-06-10T12:51:46;101504.00;;;25.75;42.17
10510;BME280;5303;53.266;10.410;2023-06-10T12:54:12;101499.66;;;25.89;41.64
10510;BME280;5303;53.266;10.410;2023-06-10T12:56:37;101496.75;;;25.92;41.32
10510;BME280;5303;53.266;10.410;2023-06-10T12:59:03;101501.31;;;25.91;41.96
10510;BME280;5303;53.266;10.410;2023-06-10T13:01:28;101501.31;;;26.07;40.08
10510;BME280;5303;53.266;10.410;2023-06-10T13:03:56;101490.91;;;25.83;41.84
10510;BME280;5303;53.266;10.410;2023-06-10T13:06:21;101489.09;;;26.00;41.38
10510;BME280;5303;53.266;10.410;2023-06-10T13:08:46;101490.66;;;26.04;40.93
10510;BME280;5303;53.266;10.410;2023-06-10T13:11:12;101483.06;;;26.10;40.64
10510;BME280;5303;53.266;10.410;2023-06-10T13:13:37;101486.84;;;26.39;40.67
10510;BME280;5303;53.266;10.410;2023-06-10T13:16:03;101483.34;;;26.37;39.32